createdAt,value
2023-04-17T00:00:50.440Z,9.87
2023-04-17T00:03:18.710Z,9.88
2023-04-17T00:05:46.923Z,9.91
2023-04-17T00:08:16.556Z,9.86
2023-04-17T00:11:00.192Z,9.97
2023-04-17T00:13:35.104Z,9.93
2023-04-17T00:16:03.427Z,9.30
2023-04-17T00:18:31.577Z,9.89
2023-04-17T00:20:59.639Z,9.54
2023-04-17T00:23:29.174Z,9.96
2023-04-17T00:25:57.354Z,10.03
2023-04-17T00:28:25.652Z,10.05
2023-04-17T00:30:53.859Z,9.91
2023-04-17T00:33:21.968Z,10.08
2023-04-17T00:35:50.178Z,9.96
2023-04-17T00:38:18.371Z,9.94
2023-04-17T00:40:48.946Z,10.09
2023-04-17T00:43:17.224Z,10.09
2023-04-17T00:45:47.383Z,10.07
2023-04-17T00:48:17.903Z,10.03
2023-04-17T00:50:46.693Z,9.87
2023-04-17T00:53:15.418Z,9.58
2023-04-17T00:55:45.695Z,10.02
2023-04-17T00:58:15.458Z,9.93
2023-04-17T01:00:43.663Z,9.72
2023-04-17T01:03:12.477Z,9.63
2023-04-17T01:05:41.543Z,9.71
2023-04-17T01:08:09.680Z,9.67
2023-04-17T01:10:37.838Z,9.73
2023-04-17T01:13:07.292Z,9.61
2023-04-17T01:15:37.346Z,9.55
2023-04-17T01:18:06.266Z,9.16
2023-04-17T01:20:34.993Z,8.65
2023-04-17T01:23:03.081Z,9.49
2023-04-17T01:25:32.742Z,9.52
2023-04-17T01:28:00.858Z,9.52
2023-04-17T01:30:28.902Z,9.62
2023-04-17T01:32:57.103Z,9.59
2023-04-17T01:35:25.279Z,9.54
2023-04-17T01:37:53.478Z,9.48
2023-04-17T01:40:21.777Z,9.60
2023-04-17T01:42:51.298Z,9.58
2023-04-17T01:45:19.530Z,9.70
2023-04-17T01:47:47.839Z,9.77
2023-04-17T01:50:15.950Z,9.67
2023-04-17T01:52:44.096Z,9.87
2023-04-17T01:55:12.446Z,9.89
2023-04-17T01:57:40.525Z,9.83
2023-04-17T02:00:11.271Z,9.90
2023-04-17T02:02:39.516Z,9.90
2023-04-17T02:05:08.595Z,9.62
2023-04-17T02:07:36.759Z,9.86
2023-04-17T02:10:05.149Z,9.27
2023-04-17T02:12:33.501Z,9.94
2023-04-17T02:15:01.601Z,9.83
2023-04-17T02:17:31.215Z,9.67
2023-04-17T02:19:59.409Z,9.92
2023-04-17T02:22:27.512Z,10.03
2023-04-17T02:24:55.708Z,10.05
2023-04-17T02:27:23.913Z,10.00
2023-04-17T02:29:51.986Z,10.03
2023-04-17T02:32:20.165Z,10.04
2023-04-17T02:34:49.733Z,10.07
2023-04-17T02:37:17.900Z,9.96
2023-04-17T02:39:45.989Z,9.95
2023-04-17T02:42:14.171Z,9.87
2023-04-17T02:44:42.321Z,8.32
2023-04-17T02:47:10.520Z,10.07
2023-04-17T02:49:38.647Z,10.15
2023-04-17T02:52:08.228Z,10.14
2023-04-17T02:54:36.393Z,9.87
2023-04-17T02:57:04.749Z,10.19
2023-04-17T02:59:32.843Z,10.10
2023-04-17T03:02:01.195Z,10.00
2023-04-17T03:04:29.359Z,10.22
2023-04-17T03:06:57.522Z,10.17
2023-04-17T03:09:27.482Z,9.65
2023-04-17T03:11:55.651Z,10.22
2023-04-17T03:14:23.832Z,10.07
2023-04-17T03:16:52.068Z,10.25
2023-04-17T03:19:20.290Z,10.20
2023-04-17T03:21:48.382Z,10.09
2023-04-17T03:24:16.505Z,10.14
2023-04-17T03:26:46.160Z,10.21
2023-04-17T03:29:14.384Z,10.16
2023-04-17T03:31:42.622Z,10.16
2023-04-17T03:34:10.797Z,10.29
2023-04-17T03:36:39.024Z,10.31
2023-04-17T03:39:07.156Z,10.13
2023-04-17T03:41:35.258Z,10.33
2023-04-17T03:44:04.753Z,10.21
2023-04-17T03:46:32.896Z,10.31
2023-04-17T03:49:01.118Z,10.17
2023-04-17T03:51:29.297Z,10.26
2023-04-17T03:53:57.368Z,10.16
2023-04-17T03:56:25.787Z,10.33
2023-04-17T03:58:53.948Z,10.17
2023-04-17T04:01:23.734Z,10.31
2023-04-17T04:03:52.298Z,10.33
2023-04-17T04:06:20.519Z,10.33
2023-04-17T04:08:48.642Z,10.33
2023-04-17T04:11:16.841Z,10.32
2023-04-17T04:13:44.918Z,10.33
2023-04-17T04:16:13.089Z,10.28
2023-04-17T04:18:43.441Z,10.35
2023-04-17T04:21:12.365Z,10.37
2023-04-17T04:23:41.472Z,9.99
2023-04-17T04:26:09.874Z,10.35
2023-04-17T04:28:38.315Z,10.41
2023-04-17T04:31:07.011Z,10.38
2023-04-17T04:33:35.377Z,10.39
2023-04-17T04:36:05.122Z,10.40
2023-04-17T04:38:33.425Z,10.22
2023-04-17T04:41:06.281Z,10.03
2023-04-17T04:43:35.678Z,10.38
2023-04-17T04:46:03.872Z,10.31
2023-04-17T04:48:31.990Z,10.46
2023-04-17T04:51:00.280Z,10.45
2023-04-17T04:53:30.002Z,10.45
2023-04-17T04:55:58.139Z,10.47
2023-04-17T04:58:26.450Z,10.38
2023-04-17T05:00:54.611Z,10.44
2023-04-17T05:03:23.825Z,10.45
2023-04-17T05:05:52.101Z,10.47
2023-04-17T05:08:20.488Z,10.30
2023-04-17T05:10:50.153Z,10.49
2023-04-17T05:13:18.282Z,10.49
2023-04-17T05:15:46.732Z,10.36
2023-04-17T05:18:15.833Z,10.48
2023-04-17T05:20:45.868Z,10.51
2023-04-17T05:23:14.155Z,10.42
2023-04-17T05:25:42.455Z,10.54
2023-04-17T05:28:12.657Z,10.56
2023-04-17T05:30:42.128Z,10.38
2023-04-17T05:33:10.324Z,10.56
2023-04-17T05:35:38.549Z,10.53
2023-04-17T05:38:08.114Z,10.59
2023-04-17T05:40:36.634Z,10.61
2023-04-17T05:43:09.521Z,9.97
2023-04-17T05:45:41.513Z,10.56
2023-04-17T05:48:09.742Z,10.42
2023-04-17T05:50:38.636Z,10.63
2023-04-17T05:53:06.967Z,10.55
2023-04-17T05:55:35.212Z,10.69
2023-04-17T05:58:07.993Z,10.76
2023-04-17T06:00:52.595Z,10.76
2023-04-17T06:03:21.349Z,10.34
2023-04-17T06:05:49.636Z,10.77
2023-04-17T06:08:17.854Z,10.79
2023-04-17T06:10:46.724Z,10.83
2023-04-17T06:13:14.847Z,10.87
2023-04-17T06:15:43.004Z,10.81
2023-04-17T06:18:12.652Z,10.95
2023-04-17T06:20:40.842Z,10.95
2023-04-17T06:23:09.016Z,11.03
2023-04-17T06:25:37.235Z,11.02
2023-04-17T06:28:05.784Z,11.07
2023-04-17T06:30:35.289Z,11.11
2023-04-17T06:33:03.506Z,11.10
2023-04-17T06:35:33.224Z,11.06
2023-04-17T06:38:01.443Z,11.08
2023-04-17T06:40:29.535Z,11.08
2023-04-17T06:42:57.665Z,11.18
2023-04-17T06:45:25.895Z,11.26
2023-04-17T06:47:53.964Z,11.28
2023-04-17T06:50:22.263Z,11.30
2023-04-17T06:52:51.802Z,11.37
2023-04-17T06:55:20.192Z,11.31
2023-04-17T06:57:48.305Z,11.37
2023-04-17T07:00:17.248Z,11.57
2023-04-17T07:02:45.718Z,11.48
2023-04-17T07:05:14.524Z,11.74
2023-04-17T07:07:42.607Z,11.72
2023-04-17T07:10:12.671Z,11.28
2023-04-17T07:12:40.889Z,11.39
2023-04-17T07:15:10.410Z,11.96
2023-04-17T07:17:38.765Z,12.03
2023-04-17T07:20:08.473Z,12.08
2023-04-17T07:22:37.003Z,11.31
2023-04-17T07:25:06.360Z,12.13
2023-04-17T07:27:38.466Z,11.66
2023-04-17T07:30:08.904Z,12.27
2023-04-17T07:32:37.650Z,12.29
2023-04-17T07:35:06.614Z,12.43
2023-04-17T07:37:37.187Z,12.54
2023-04-17T07:40:08.192Z,12.65
2023-04-17T07:42:38.063Z,12.61
2023-04-17T07:45:07.284Z,12.71
2023-04-17T07:47:35.619Z,12.76
2023-04-17T07:50:03.844Z,12.50
2023-04-17T07:52:32.193Z,12.78
2023-04-17T07:55:00.458Z,13.06
2023-04-17T07:57:28.647Z,13.15
2023-04-17T07:59:58.236Z,13.40
2023-04-17T08:02:26.727Z,13.46
2023-04-17T08:04:55.703Z,13.63
2023-04-17T08:07:24.127Z,13.64
2023-04-17T08:09:52.429Z,13.47
2023-04-17T08:12:20.782Z,13.64
2023-04-17T08:14:49.086Z,13.55
2023-04-17T08:17:23.005Z,13.62
2023-04-17T08:19:53.722Z,13.62
2023-04-17T08:22:24.268Z,13.55
2023-04-17T08:24:54.979Z,12.81
2023-04-17T08:27:23.261Z,13.57
2023-04-17T08:29:51.806Z,12.82
2023-04-17T08:32:21.876Z,13.62
2023-04-17T08:34:50.151Z,13.48
2023-04-17T08:37:18.348Z,13.74
2023-04-17T08:39:46.646Z,13.43
2023-04-17T08:42:18.946Z,13.90
2023-04-17T08:44:47.476Z,14.04
2023-04-17T08:47:18.697Z,14.25
2023-04-17T08:49:50.646Z,14.22
2023-04-17T08:52:18.872Z,14.51
2023-04-17T08:54:49.873Z,14.68
2023-04-17T08:57:19.456Z,14.74
2023-04-17T08:59:47.673Z,14.71
2023-04-17T09:02:16.086Z,14.68
2023-04-17T09:04:47.305Z,14.73
2023-04-17T09:07:16.976Z,14.70
2023-04-17T09:09:52.236Z,14.56
2023-04-17T09:12:21.116Z,14.43
2023-04-17T09:14:49.436Z,14.51
2023-04-17T09:17:19.126Z,14.52
2023-04-17T09:20:09.163Z,14.72
2023-04-17T09:22:40.383Z,14.74
2023-04-17T09:25:18.290Z,14.86
2023-04-17T09:27:46.930Z,14.95
2023-04-17T09:30:15.832Z,15.14
2023-04-17T09:32:44.083Z,15.31
2023-04-17T09:35:12.448Z,15.42
2023-04-17T09:37:52.226Z,15.45
2023-04-17T09:40:21.659Z,15.47
2023-04-17T09:42:57.532Z,14.81
2023-04-17T09:45:27.048Z,15.45
2023-04-17T09:47:56.105Z,15.25
2023-04-17T09:50:26.052Z,15.21
2023-04-17T09:52:56.788Z,15.39
2023-04-17T09:55:26.844Z,15.49
2023-04-17T09:57:56.627Z,15.38
2023-04-17T10:00:27.262Z,15.50
2023-04-17T10:02:57.505Z,15.16
2023-04-17T10:05:27.207Z,15.70
2023-04-17T10:07:57.420Z,15.83
2023-04-17T10:10:27.058Z,15.91
2023-04-17T10:12:59.456Z,15.95
2023-04-17T10:15:28.446Z,15.77
2023-04-17T10:17:57.849Z,15.72
2023-04-17T10:20:44.972Z,15.61
2023-04-17T10:23:32.504Z,15.49
2023-04-17T10:26:46.191Z,15.80
2023-04-17T10:29:14.420Z,15.94
2023-04-17T10:32:17.683Z,16.03
2023-04-17T10:34:46.452Z,15.93
2023-04-17T10:37:16.324Z,15.90
2023-04-17T10:39:54.454Z,15.80
2023-04-17T10:42:24.090Z,15.67
2023-04-17T10:44:53.355Z,15.88
2023-04-17T10:47:22.870Z,15.76
2023-04-17T10:49:52.610Z,15.57
2023-04-17T10:52:40.388Z,15.50
2023-04-17T10:55:12.621Z,15.71
2023-04-17T10:57:57.498Z,15.82
2023-04-17T11:00:37.511Z,15.55
2023-04-17T11:03:07.816Z,15.67
2023-04-17T11:05:36.791Z,15.36
2023-04-17T11:08:04.914Z,15.71
2023-04-17T11:10:37.381Z,15.77
2023-04-17T11:13:05.837Z,15.88
2023-04-17T11:15:35.731Z,15.84
2023-04-17T11:18:05.116Z,15.66
2023-04-17T11:20:37.234Z,15.81
2023-04-17T11:23:06.544Z,16.03
2023-04-17T11:25:37.359Z,16.11
2023-04-17T11:28:07.958Z,16.16
2023-04-17T11:30:37.535Z,16.20
2023-04-17T11:33:07.890Z,16.16
2023-04-17T11:35:37.745Z,16.14
2023-04-17T11:38:07.917Z,16.16
2023-04-17T11:40:37.499Z,16.29
2023-04-17T11:43:09.098Z,16.11
2023-04-17T11:45:38.270Z,16.23
2023-04-17T11:48:06.633Z,16.10
2023-04-17T11:50:34.821Z,15.86
2023-04-17T11:53:04.316Z,16.13
2023-04-17T11:55:33.479Z,16.18
2023-04-17T11:58:05.427Z,16.25
2023-04-17T12:00:34.544Z,16.12
2023-04-17T12:03:04.713Z,16.31
2023-04-17T12:05:32.982Z,16.40
2023-04-17T12:08:03.182Z,15.87
2023-04-17T12:10:42.384Z,16.50
2023-04-17T12:13:13.168Z,16.57
2023-04-17T12:15:41.341Z,16.58
2023-04-17T12:18:10.185Z,16.63
2023-04-17T12:20:38.570Z,16.56
2023-04-17T12:23:07.843Z,16.63
2023-04-17T12:25:36.230Z,16.66
2023-04-17T12:28:05.128Z,16.64
2023-04-17T12:30:36.273Z,16.82
2023-04-17T12:33:04.792Z,16.89
2023-04-17T12:35:33.724Z,16.89
2023-04-17T12:38:01.969Z,16.61
2023-04-17T12:40:30.155Z,16.83
2023-04-17T12:42:58.306Z,16.73
2023-04-17T12:45:26.542Z,16.21
2023-04-17T12:47:56.254Z,16.80
2023-04-17T12:50:24.598Z,16.10
2023-04-17T12:52:52.697Z,16.68
2023-04-17T12:55:20.945Z,16.26
2023-04-17T12:57:49.004Z,16.19
2023-04-17T13:00:18.060Z,16.11
2023-04-17T13:02:46.295Z,16.10
2023-04-17T13:05:16.242Z,16.17
2023-04-17T13:07:44.385Z,16.25
2023-04-17T13:10:12.633Z,16.31
2023-04-17T13:12:42.296Z,16.23
2023-04-17T13:15:13.049Z,16.31
2023-04-17T13:17:41.432Z,16.43
2023-04-17T13:20:10.771Z,16.08
2023-04-17T13:22:40.548Z,16.13
2023-04-17T13:25:09.708Z,15.82
2023-04-17T13:27:38.276Z,16.22
2023-04-17T13:30:07.585Z,16.21
2023-04-17T13:32:35.920Z,16.16
2023-04-17T13:35:05.294Z,15.61
2023-04-17T13:37:33.533Z,16.05
2023-04-17T13:40:05.354Z,16.28
2023-04-17T13:42:33.687Z,16.00
2023-04-17T13:45:01.872Z,16.28
2023-04-17T13:47:30.095Z,16.35
2023-04-17T13:49:58.332Z,16.29
2023-04-17T13:52:26.994Z,16.28
2023-04-17T13:54:55.060Z,16.25
2023-04-17T13:57:24.556Z,16.24
2023-04-17T13:59:52.701Z,16.09
2023-04-17T14:02:21.230Z,16.30
2023-04-17T14:04:49.850Z,16.07
2023-04-17T14:07:18.453Z,16.31
2023-04-17T14:09:46.688Z,16.25
2023-04-17T14:12:19.858Z,16.35
2023-04-17T14:14:49.430Z,16.36
2023-04-17T14:17:18.186Z,15.94
2023-04-17T14:19:46.389Z,16.40
2023-04-17T14:22:14.504Z,16.33
2023-04-17T14:24:42.687Z,16.54
2023-04-17T14:27:10.900Z,16.59
2023-04-17T14:29:38.988Z,16.65
2023-04-17T14:32:10.885Z,16.58
2023-04-17T14:34:39.130Z,16.59
2023-04-17T14:37:07.331Z,16.43
2023-04-17T14:39:35.433Z,16.66
2023-04-17T14:42:03.640Z,16.63
2023-04-17T14:44:31.838Z,16.73
2023-04-17T14:47:00.094Z,16.82
2023-04-17T14:49:30.399Z,16.91
2023-04-17T14:51:58.751Z,16.86
2023-04-17T14:54:26.982Z,17.17
2023-04-17T14:56:55.169Z,17.38
2023-04-17T14:59:23.531Z,18.05
2023-04-17T15:01:51.918Z,19.28
2023-04-17T15:04:20.261Z,19.99
2023-04-17T15:06:50.256Z,21.22
2023-04-17T15:09:18.574Z,22.07
2023-04-17T15:11:47.807Z,23.46
2023-04-17T15:14:15.937Z,24.75
2023-04-17T15:16:44.149Z,25.24
2023-04-17T15:19:12.592Z,26.29
2023-04-17T15:21:41.119Z,26.40
2023-04-17T15:24:10.872Z,27.59
2023-04-17T15:26:39.138Z,27.89
2023-04-17T15:29:07.419Z,27.78
2023-04-17T15:31:36.041Z,27.18
2023-04-17T15:34:04.292Z,28.22
2023-04-17T15:36:32.776Z,29.42
2023-04-17T15:39:00.991Z,29.16
2023-04-17T15:41:30.706Z,27.01
2023-04-17T15:43:58.882Z,27.00
2023-04-17T15:46:27.054Z,27.43
2023-04-17T15:49:08.335Z,28.22
2023-04-17T15:51:38.555Z,28.75
2023-04-17T15:54:08.460Z,28.19
2023-04-17T15:56:38.186Z,26.86
2023-04-17T15:59:06.364Z,24.82
2023-04-17T16:01:34.638Z,23.60
2023-04-17T16:04:02.992Z,23.38
2023-04-17T16:06:31.442Z,23.12
2023-04-17T16:08:59.616Z,23.38
2023-04-17T16:11:28.228Z,23.33
2023-04-17T16:13:57.935Z,23.95
2023-04-17T16:16:27.287Z,24.15
2023-04-17T16:18:55.523Z,23.68
2023-04-17T16:21:23.735Z,24.22
2023-04-17T16:23:51.873Z,24.23
2023-04-17T16:26:20.148Z,23.88
2023-04-17T16:28:48.285Z,23.02
2023-04-17T16:31:17.917Z,22.01
2023-04-17T16:33:46.137Z,20.36
2023-04-17T16:36:14.461Z,19.78
2023-04-17T16:38:42.689Z,19.11
2023-04-17T16:41:10.877Z,18.59
2023-04-17T16:43:39.094Z,18.30
2023-04-17T16:46:18.409Z,17.79
2023-04-17T16:48:51.137Z,17.31
2023-04-17T16:51:20.529Z,17.07
2023-04-17T16:53:48.863Z,16.71
2023-04-17T16:56:17.345Z,16.55
2023-04-17T16:58:45.518Z,16.36
2023-04-17T17:01:14.065Z,16.34
2023-04-17T17:03:43.425Z,15.99
2023-04-17T17:06:13.127Z,15.93
2023-04-17T17:08:43.359Z,15.79
2023-04-17T17:11:11.577Z,15.68
2023-04-17T17:13:39.816Z,15.58
2023-04-17T17:16:08.086Z,14.77
2023-04-17T17:18:36.352Z,15.11
2023-04-17T17:21:05.025Z,14.94
2023-04-17T17:23:34.688Z,15.01
2023-04-17T17:26:03.021Z,14.82
2023-04-17T17:28:31.170Z,14.94
2023-04-17T17:31:02.781Z,14.92
2023-04-17T17:33:32.119Z,14.84
2023-04-17T17:36:01.115Z,14.74
2023-04-17T17:38:31.022Z,14.54
2023-04-17T17:41:01.118Z,14.57
2023-04-17T17:43:30.047Z,14.52
2023-04-17T17:45:58.343Z,14.25
2023-04-17T17:48:27.051Z,14.39
2023-04-17T17:50:57.206Z,14.09
2023-04-17T17:53:26.609Z,13.74
2023-04-17T17:55:56.828Z,14.06
2023-04-17T17:58:27.497Z,14.08
2023-04-17T18:00:56.064Z,14.00
2023-04-17T18:03:24.543Z,13.98
2023-04-17T18:05:53.000Z,13.95
2023-04-17T18:08:21.202Z,13.99
2023-04-17T18:10:49.405Z,13.95
2023-04-17T18:13:22.959Z,13.52
2023-04-17T18:15:54.723Z,13.55
2023-04-17T18:18:22.922Z,13.62
2023-04-17T18:20:51.622Z,13.60
2023-04-17T18:23:20.282Z,13.37
2023-04-17T18:25:58.138Z,13.49
2023-04-17T18:28:27.237Z,13.54
2023-04-17T18:30:58.812Z,13.42
2023-04-17T18:33:29.518Z,13.58
2023-04-17T18:35:57.624Z,13.52
2023-04-17T18:38:25.837Z,13.41
2023-04-17T18:40:55.728Z,13.41
2023-04-17T18:43:24.126Z,13.36
2023-04-17T18:45:52.681Z,13.34
2023-04-17T18:48:26.028Z,12.71
2023-04-17T18:50:54.225Z,13.14
2023-04-17T18:53:23.000Z,13.13
2023-04-17T18:55:52.738Z,13.17
2023-04-17T18:58:24.517Z,13.29
2023-04-17T19:00:52.790Z,13.28
2023-04-17T19:03:22.448Z,13.18
2023-04-17T19:05:50.920Z,12.99
2023-04-17T19:08:19.191Z,13.05
2023-04-17T19:10:47.472Z,13.11
2023-04-17T19:13:15.619Z,13.18
2023-04-17T19:15:43.827Z,12.87
2023-04-17T19:18:11.932Z,13.02
2023-04-17T19:20:42.633Z,12.95
2023-04-17T19:23:11.341Z,12.95
2023-04-17T19:25:41.740Z,12.96
2023-04-17T19:28:11.671Z,12.90
2023-04-17T19:30:40.188Z,12.97
2023-04-17T19:33:08.572Z,12.91
2023-04-17T19:35:36.899Z,12.82
2023-04-17T19:38:06.568Z,12.78
2023-04-17T19:40:34.868Z,12.87
2023-04-17T19:43:03.751Z,12.69
2023-04-17T19:45:33.485Z,12.07
2023-04-17T19:48:02.123Z,12.81
2023-04-17T19:53:07.518Z,12.96
2023-04-17T19:55:35.873Z,12.77
2023-04-17T19:58:04.445Z,12.87
2023-04-17T20:00:33.343Z,12.89
2023-04-17T20:03:01.908Z,12.20
2023-04-17T20:05:30.664Z,12.69
2023-04-17T20:07:59.017Z,12.16
2023-04-17T20:10:28.893Z,12.35
2023-04-17T20:12:57.305Z,12.98
2023-04-17T20:15:25.840Z,12.74
2023-04-17T20:17:55.721Z,12.58
2023-04-17T20:20:24.785Z,12.89
2023-04-17T20:22:53.094Z,12.73
2023-04-17T20:25:21.760Z,12.82
2023-04-17T20:27:51.970Z,12.66
2023-04-17T20:30:20.950Z,12.73
2023-04-17T20:32:49.722Z,12.71
2023-04-17T20:35:20.991Z,12.45
2023-04-17T20:37:49.998Z,11.95
2023-04-17T20:43:49.079Z,12.72
2023-04-17T20:46:37.939Z,12.54
2023-04-17T20:49:25.754Z,12.65
2023-04-17T20:52:08.185Z,12.55
2023-04-17T20:54:46.596Z,12.53
2023-04-17T20:57:19.705Z,12.54
2023-04-17T20:59:50.117Z,12.37
2023-04-17T21:02:19.088Z,12.09
2023-04-17T21:04:47.621Z,12.46
2023-04-17T21:07:16.128Z,12.53
2023-04-17T21:09:44.358Z,12.44
2023-04-17T21:12:12.665Z,12.22
2023-04-17T21:14:43.418Z,12.28
2023-04-17T21:17:13.229Z,12.45
2023-04-17T21:19:42.370Z,12.39
2023-04-17T21:22:12.158Z,12.36
2023-04-17T21:24:41.105Z,12.28
2023-04-17T21:27:10.553Z,12.13
2023-04-17T21:29:38.988Z,12.38
2023-04-17T21:32:07.691Z,11.96
2023-04-17T21:34:37.475Z,12.05
2023-04-17T21:37:06.104Z,12.31
2023-04-17T21:39:34.970Z,12.34
2023-04-17T21:42:03.536Z,12.33
2023-04-17T21:44:32.001Z,12.24
2023-04-17T21:47:00.618Z,12.33
2023-04-17T21:49:29.241Z,11.85
2023-04-17T21:52:00.061Z,12.26
2023-04-17T21:54:29.753Z,11.88
2023-04-17T21:56:57.986Z,12.22
2023-04-17T21:59:26.244Z,12.26
2023-04-17T22:01:54.717Z,12.11
2023-04-17T22:04:23.704Z,12.23
2023-04-17T22:06:52.247Z,12.29
2023-04-17T22:09:22.605Z,12.32
2023-04-17T22:11:51.439Z,12.26
2023-04-17T22:14:19.724Z,12.08
2023-04-17T22:16:48.064Z,12.29
2023-04-17T22:19:16.321Z,12.23
2023-04-17T22:21:44.723Z,12.24
2023-04-17T22:24:13.216Z,12.27
2023-04-17T22:26:43.161Z,11.67
2023-04-17T22:29:11.549Z,12.10
2023-04-17T22:31:42.278Z,11.85
2023-04-17T22:34:10.537Z,12.16
2023-04-17T22:36:38.802Z,12.06
2023-04-17T22:39:07.175Z,12.18
2023-04-17T22:41:35.840Z,12.18
2023-04-17T22:44:05.641Z,12.19
2023-04-17T22:46:33.946Z,12.15
2023-04-17T22:49:03.808Z,12.12
2023-04-17T22:51:33.282Z,12.00
2023-04-17T22:54:15.272Z,12.19
2023-04-17T22:56:47.925Z,12.04
2023-04-17T22:59:18.033Z,12.21
2023-04-17T23:01:48.085Z,11.48
2023-04-17T23:04:16.598Z,12.14
2023-04-17T23:06:44.985Z,11.97
2023-04-17T23:09:13.230Z,11.96
2023-04-17T23:11:41.550Z,12.10
2023-04-17T23:14:11.517Z,12.11
2023-04-17T23:16:41.293Z,12.09
2023-04-17T23:19:09.525Z,11.95
2023-04-17T23:21:37.912Z,12.08
2023-04-17T23:24:06.420Z,12.02
2023-04-17T23:26:34.689Z,11.94
2023-04-17T23:29:02.952Z,12.07
2023-04-17T23:31:31.245Z,11.98
2023-04-17T23:34:01.228Z,12.10
2023-04-17T23:36:29.610Z,11.67
2023-04-17T23:38:57.954Z,12.04
2023-04-17T23:41:28.041Z,12.06
2023-04-17T23:43:57.384Z,11.99
2023-04-17T23:46:25.722Z,11.69
2023-04-17T23:48:53.966Z,11.49
2023-04-17T23:51:23.810Z,11.99
2023-04-17T23:53:52.184Z,11.94
2023-04-17T23:56:22.262Z,11.92
2023-04-17T23:58:50.639Z,11.82
